createdAt,value
2022-08-19T00:00:14.917Z,100.00
2022-08-19T00:02:47.031Z,100.00
2022-08-19T00:05:20.017Z,100.00
2022-08-19T00:07:48.230Z,100.00
2022-08-19T00:10:19.356Z,100.00
2022-08-19T00:12:47.326Z,100.00
2022-08-19T00:15:18.998Z,100.00
2022-08-19T00:17:49.444Z,100.00
2022-08-19T00:20:20.668Z,100.00
2022-08-19T00:22:49.223Z,100.00
2022-08-19T00:25:19.223Z,100.00
2022-08-19T00:27:58.588Z,100.00
2022-08-19T00:30:26.832Z,100.00
2022-08-19T00:32:56.070Z,100.00
2022-08-19T00:35:28.075Z,100.00
2022-08-19T00:37:57.369Z,100.00
2022-08-19T00:40:27.372Z,100.00
2022-08-19T00:42:55.746Z,100.00
2022-08-19T00:45:26.328Z,100.00
2022-08-19T00:47:56.407Z,100.00
2022-08-19T00:50:25.167Z,100.00
2022-08-19T00:52:54.466Z,100.00
2022-08-19T00:55:24.778Z,100.00
2022-08-19T00:57:58.390Z,100.00
2022-08-19T01:00:28.482Z,100.00
2022-08-19T01:02:58.849Z,100.00
2022-08-19T01:05:29.628Z,100.00
2022-08-19T01:07:59.058Z,100.00
2022-08-19T01:10:33.626Z,100.00
2022-08-19T01:13:06.798Z,100.00
2022-08-19T01:15:36.313Z,100.00
2022-08-19T01:18:10.262Z,100.00
2022-08-19T01:20:38.264Z,100.00
2022-08-19T01:23:07.783Z,100.00
2022-08-19T01:25:42.089Z,100.00
2022-08-19T01:28:11.229Z,100.00
2022-08-19T01:30:40.042Z,100.00
2022-08-19T01:33:12.590Z,100.00
2022-08-19T01:35:43.529Z,100.00
2022-08-19T01:38:22.708Z,100.00
2022-08-19T01:40:50.673Z,100.00
2022-08-19T01:43:19.980Z,100.00
2022-08-19T01:45:48.589Z,100.00
2022-08-19T01:48:16.812Z,100.00
2022-08-19T01:50:45.154Z,100.00
2022-08-19T01:53:14.492Z,100.00
2022-08-19T01:55:46.070Z,100.00
2022-08-19T01:58:17.978Z,100.00
2022-08-19T02:00:47.200Z,100.00
2022-08-19T02:03:15.291Z,100.00
2022-08-19T02:05:44.333Z,100.00
2022-08-19T02:08:12.339Z,100.00
2022-08-19T02:10:43.592Z,100.00
2022-08-19T02:13:12.469Z,100.00
2022-08-19T02:15:40.403Z,100.00
2022-08-19T02:18:09.243Z,100.00
2022-08-19T02:20:37.712Z,100.00
2022-08-19T02:23:05.989Z,100.00
2022-08-19T02:25:45.319Z,100.00
2022-08-19T02:28:18.293Z,100.00
2022-08-19T02:30:47.621Z,100.00
2022-08-19T02:33:15.986Z,100.00
2022-08-19T02:35:44.726Z,100.00
2022-08-19T02:38:27.573Z,100.00
2022-08-19T02:40:59.822Z,100.00
2022-08-19T02:43:29.820Z,100.00
2022-08-19T02:46:02.068Z,100.00
2022-08-19T02:48:30.173Z,100.00
2022-08-19T02:50:58.194Z,100.00
2022-08-19T02:53:29.720Z,100.00
2022-08-19T02:55:59.358Z,100.00
2022-08-19T02:58:28.264Z,100.00
2022-08-19T03:00:58.426Z,100.00
2022-08-19T03:03:28.988Z,100.00
2022-08-19T03:06:10.211Z,100.00
2022-08-19T03:08:39.835Z,100.00
2022-08-19T03:11:15.526Z,100.00
2022-08-19T03:13:44.174Z,100.00
2022-08-19T03:16:13.182Z,100.00
2022-08-19T03:18:41.409Z,100.00
2022-08-19T03:21:10.462Z,100.00
2022-08-19T03:23:41.059Z,100.00
2022-08-19T03:26:16.699Z,100.00
2022-08-19T03:28:51.397Z,100.00
2022-08-19T03:31:44.283Z,100.00
2022-08-19T03:34:13.392Z,100.00
2022-08-19T03:36:41.687Z,100.00
2022-08-19T03:39:10.393Z,100.00
2022-08-19T03:41:44.880Z,100.00
2022-08-19T03:44:18.533Z,100.00
2022-08-19T03:46:50.663Z,100.00
2022-08-19T03:49:19.841Z,100.00
2022-08-19T03:51:49.610Z,100.00
2022-08-19T03:54:19.504Z,100.00
2022-08-19T03:56:50.633Z,100.00
2022-08-19T03:59:20.831Z,100.00
2022-08-19T04:01:49.305Z,100.00
2022-08-19T04:04:17.332Z,100.00
2022-08-19T04:06:48.812Z,100.00
2022-08-19T04:09:17.452Z,100.00
2022-08-19T04:11:49.903Z,100.00
2022-08-19T04:14:21.681Z,100.00
2022-08-19T04:16:50.675Z,100.00
2022-08-19T04:19:20.457Z,100.00
2022-08-19T04:21:51.342Z,100.00
2022-08-19T04:24:20.625Z,100.00
2022-08-19T04:26:50.568Z,100.00
2022-08-19T04:29:23.154Z,100.00
2022-08-19T04:31:51.762Z,100.00
2022-08-19T04:34:23.464Z,100.00
2022-08-19T04:36:53.076Z,100.00
2022-08-19T04:39:44.837Z,100.00
2022-08-19T04:42:32.730Z,100.00
2022-08-19T04:45:01.125Z,100.00
2022-08-19T04:47:48.016Z,100.00
2022-08-19T04:50:19.554Z,100.00
2022-08-19T04:52:47.921Z,100.00
2022-08-19T04:55:15.964Z,100.00
2022-08-19T04:57:47.477Z,100.00
2022-08-19T05:00:15.832Z,100.00
2022-08-19T05:02:43.796Z,100.00
2022-08-19T05:05:11.890Z,100.00
2022-08-19T05:07:43.111Z,100.00
2022-08-19T05:10:12.495Z,100.00
2022-08-19T05:12:40.516Z,100.00
2022-08-19T05:15:12.601Z,100.00
2022-08-19T05:18:03.316Z,100.00
2022-08-19T05:20:48.928Z,100.00
2022-08-19T05:23:21.955Z,100.00
2022-08-19T05:25:52.593Z,100.00
2022-08-19T05:28:21.083Z,100.00
2022-08-19T05:30:51.867Z,100.00
2022-08-19T05:33:22.637Z,100.00
2022-08-19T05:35:51.297Z,100.00
2022-08-19T05:38:20.198Z,100.00
2022-08-19T05:40:49.084Z,100.00
2022-08-19T05:43:17.387Z,100.00
2022-08-19T05:45:46.025Z,100.00
2022-08-19T05:48:15.923Z,100.00
2022-08-19T05:50:45.326Z,100.00
2022-08-19T05:53:13.369Z,100.00
2022-08-19T05:55:41.324Z,100.00
2022-08-19T05:58:09.445Z,100.00
2022-08-19T06:00:38.169Z,100.00
2022-08-19T06:03:11.816Z,100.00
2022-08-19T06:05:49.498Z,100.00
2022-08-19T06:08:33.939Z,100.00
2022-08-19T06:11:19.930Z,100.00
2022-08-19T06:13:52.012Z,100.00
2022-08-19T06:16:31.091Z,100.00
2022-08-19T06:19:04.208Z,100.00
2022-08-19T06:21:33.872Z,100.00
2022-08-19T06:24:03.192Z,100.00
2022-08-19T06:26:31.428Z,100.00
2022-08-19T06:28:59.364Z,100.00
2022-08-19T06:31:34.311Z,100.00
2022-08-19T06:34:04.110Z,100.00
2022-08-19T06:36:36.507Z,100.00
2022-08-19T06:39:06.567Z,100.00
2022-08-19T06:41:41.042Z,100.00
2022-08-19T06:44:18.991Z,100.00
2022-08-19T06:46:53.651Z,100.00
2022-08-19T06:49:23.715Z,100.00
2022-08-19T06:51:53.009Z,100.00
2022-08-19T06:54:21.500Z,100.00
2022-08-19T06:56:49.580Z,100.00
2022-08-19T06:59:19.709Z,100.00
2022-08-19T07:01:50.588Z,100.00
2022-08-19T07:04:20.717Z,100.00
2022-08-19T07:06:55.335Z,100.00
2022-08-19T07:09:25.025Z,100.00
2022-08-19T07:11:55.018Z,100.00
2022-08-19T07:14:26.268Z,100.00
2022-08-19T07:16:58.135Z,100.00
2022-08-19T07:19:29.302Z,100.00
2022-08-19T07:21:57.783Z,100.00
2022-08-19T07:24:31.190Z,100.00
2022-08-19T07:27:06.775Z,100.00
2022-08-19T07:29:43.276Z,100.00
2022-08-19T07:32:13.484Z,100.00
2022-08-19T07:34:41.668Z,100.00
2022-08-19T07:37:10.973Z,100.00
2022-08-19T07:39:41.085Z,100.00
2022-08-19T07:42:13.413Z,100.00
2022-08-19T07:44:50.641Z,100.00
2022-08-19T07:47:47.415Z,100.00
2022-08-19T07:50:12.332Z,100.00
2022-08-19T07:52:41.261Z,100.00
2022-08-19T07:55:41.242Z,100.00
2022-08-19T07:58:00.509Z,100.00
2022-08-19T08:00:31.273Z,100.00
2022-08-19T08:02:59.285Z,100.00
2022-08-19T08:05:45.214Z,100.00
2022-08-19T08:08:31.178Z,100.00
2022-08-19T08:11:02.322Z,100.00
2022-08-19T08:13:30.554Z,100.00
2022-08-19T08:15:59.653Z,100.00
2022-08-19T08:18:30.525Z,100.00
2022-08-19T08:20:59.634Z,100.00
2022-08-19T08:23:29.542Z,100.00
2022-08-19T08:26:00.133Z,100.00
2022-08-19T08:28:30.596Z,100.00
2022-08-19T08:30:59.393Z,100.00
2022-08-19T08:33:34.613Z,100.00
2022-08-19T08:36:04.121Z,100.00
2022-08-19T08:38:38.454Z,100.00
2022-08-19T08:41:20.534Z,100.00
2022-08-19T08:43:54.565Z,100.00
2022-08-19T08:46:31.510Z,100.00
2022-08-19T08:49:08.421Z,100.00
2022-08-19T08:54:14.645Z,100.00
2022-08-19T08:56:45.394Z,100.00
2022-08-19T08:59:26.499Z,100.00
2022-08-19T09:01:54.679Z,100.00
2022-08-19T09:04:23.483Z,100.00
2022-08-19T09:06:58.622Z,100.00
2022-08-19T09:09:33.408Z,100.00
2022-08-19T09:12:11.734Z,100.00
2022-08-19T09:14:51.878Z,100.00
2022-08-19T09:17:29.003Z,100.00
2022-08-19T09:20:03.540Z,100.00
2022-08-19T09:22:32.976Z,100.00
2022-08-19T09:25:01.614Z,100.00
2022-08-19T09:27:42.032Z,100.00
2022-08-19T09:30:18.064Z,100.00
2022-08-19T09:32:46.690Z,100.00
2022-08-19T09:35:16.738Z,100.00
2022-08-19T09:37:45.111Z,100.00
2022-08-19T09:40:18.662Z,100.00
2022-08-19T09:42:52.658Z,100.00
2022-08-19T09:45:23.806Z,100.00
2022-08-19T09:47:55.203Z,100.00
2022-08-19T09:50:24.791Z,100.00
2022-08-19T09:52:57.716Z,100.00
2022-08-19T09:55:31.252Z,100.00
2022-08-19T09:58:02.407Z,100.00
2022-08-19T10:00:34.589Z,100.00
2022-08-19T10:03:02.644Z,100.00
2022-08-19T10:05:49.131Z,100.00
2022-08-19T10:08:18.619Z,100.00
2022-08-19T10:10:49.922Z,100.00
2022-08-19T10:13:22.820Z,100.00
2022-08-19T10:15:52.598Z,100.00
2022-08-19T10:18:23.742Z,100.00
2022-08-19T10:20:53.429Z,100.00
2022-08-19T10:23:22.240Z,100.00
2022-08-19T10:25:51.322Z,100.00
2022-08-19T10:28:19.717Z,100.00
2022-08-19T10:30:48.526Z,100.00
2022-08-19T10:33:38.619Z,100.00
2022-08-19T10:36:08.796Z,100.00
2022-08-19T10:38:36.913Z,100.00
2022-08-19T10:41:09.902Z,100.00
2022-08-19T10:43:39.276Z,100.00
2022-08-19T10:46:09.656Z,100.00
2022-08-19T10:48:46.819Z,100.00
2022-08-19T10:51:32.700Z,100.00
2022-08-19T10:54:02.713Z,100.00
2022-08-19T10:56:54.107Z,97.92
2022-08-19T10:59:26.913Z,100.00
2022-08-19T11:01:56.787Z,100.00
2022-08-19T11:04:28.876Z,100.00
2022-08-19T11:06:58.364Z,100.00
2022-08-19T11:09:33.618Z,100.00
2022-08-19T11:12:02.789Z,100.00
2022-08-19T11:14:34.767Z,100.00
2022-08-19T11:17:03.393Z,96.91
2022-08-19T11:19:35.190Z,96.37
2022-08-19T11:22:03.913Z,98.32
2022-08-19T11:24:33.649Z,100.00
2022-08-19T11:27:07.269Z,95.64
2022-08-19T11:29:36.056Z,98.72
2022-08-19T11:32:06.887Z,97.54
2022-08-19T11:34:36.608Z,91.28
2022-08-19T11:37:06.723Z,84.93
2022-08-19T11:39:36.322Z,85.12
2022-08-19T11:42:25.518Z,86.99
2022-08-19T11:44:56.571Z,84.22
2022-08-19T11:47:25.010Z,92.38
2022-08-19T11:49:54.353Z,82.25
2022-08-19T11:52:22.323Z,81.70
2022-08-19T11:54:50.463Z,81.75
2022-08-19T11:57:19.418Z,81.71
2022-08-19T11:59:51.491Z,79.44
2022-08-19T12:02:20.050Z,80.04
2022-08-19T12:04:48.327Z,82.59
2022-08-19T12:07:17.764Z,79.45
2022-08-19T12:09:45.948Z,72.22
2022-08-19T12:12:17.274Z,72.23
2022-08-19T12:14:46.229Z,72.48
2022-08-19T12:17:14.569Z,70.57
2022-08-19T12:19:42.486Z,70.07
2022-08-19T12:22:10.524Z,70.57
2022-08-19T12:24:40.013Z,68.17
2022-08-19T12:27:12.504Z,68.37
2022-08-19T12:29:42.325Z,69.35
2022-08-19T12:32:12.234Z,72.21
2022-08-19T12:34:43.405Z,72.88
2022-08-19T12:37:11.920Z,71.41
2022-08-19T12:39:43.329Z,69.52
2022-08-19T12:42:12.365Z,67.01
2022-08-19T12:44:42.710Z,68.06
2022-08-19T12:47:12.599Z,66.69
2022-08-19T12:49:54.203Z,66.86
2022-08-19T12:52:24.558Z,64.04
2022-08-19T12:54:56.042Z,61.38
2022-08-19T12:57:32.270Z,62.30
2022-08-19T13:00:05.301Z,62.14
2022-08-19T13:02:38.847Z,63.14
2022-08-19T13:05:10.708Z,66.30
2022-08-19T13:07:39.441Z,68.62
2022-08-19T13:10:12.046Z,68.85
2022-08-19T13:12:42.922Z,67.60
2022-08-19T13:15:12.244Z,67.98
2022-08-19T13:17:41.096Z,67.27
2022-08-19T13:20:11.969Z,62.32
2022-08-19T13:22:40.025Z,60.29
2022-08-19T13:25:10.718Z,58.04
2022-08-19T13:27:43.392Z,58.88
2022-08-19T13:30:31.318Z,58.07
2022-08-19T13:33:16.257Z,56.57
2022-08-19T13:35:48.551Z,56.93
2022-08-19T13:38:21.361Z,56.72
2022-08-19T13:40:52.432Z,58.49
2022-08-19T13:43:23.767Z,60.88
2022-08-19T13:45:57.405Z,61.96
2022-08-19T13:48:27.277Z,60.04
2022-08-19T13:50:57.726Z,58.10
2022-08-19T13:53:25.913Z,57.68
2022-08-19T13:55:55.476Z,56.28
2022-08-19T13:58:24.309Z,56.45
2022-08-19T14:00:52.334Z,58.04
2022-08-19T14:03:20.515Z,58.57
2022-08-19T14:05:48.625Z,59.22
2022-08-19T14:08:16.636Z,58.29
2022-08-19T14:10:45.631Z,57.79
2022-08-19T14:13:18.774Z,59.51
2022-08-19T14:15:48.176Z,61.77
2022-08-19T14:18:16.705Z,61.08
2022-08-19T14:20:44.883Z,60.86
2022-08-19T14:23:14.548Z,60.87
2022-08-19T14:25:42.573Z,60.21
2022-08-19T14:28:10.730Z,60.35
2022-08-19T14:30:40.123Z,62.63
2022-08-19T14:33:09.600Z,62.84
2022-08-19T14:35:38.433Z,61.81
2022-08-19T14:38:08.140Z,64.20
2022-08-19T14:40:36.143Z,63.25
2022-08-19T14:43:06.209Z,64.66
2022-08-19T14:45:37.241Z,62.72
2022-08-19T14:48:08.018Z,65.10
2022-08-19T14:50:40.493Z,65.06
2022-08-19T14:53:12.563Z,64.99
2022-08-19T14:55:44.096Z,66.27
2022-08-19T14:58:29.370Z,66.95
2022-08-19T15:01:00.990Z,66.66
2022-08-19T15:03:32.513Z,65.61
2022-08-19T15:06:02.216Z,65.04
2022-08-19T15:08:32.406Z,63.81
2022-08-19T15:11:02.831Z,63.52
2022-08-19T15:13:31.435Z,63.89
2022-08-19T15:16:00.034Z,63.21
2022-08-19T15:18:28.096Z,62.30
2022-08-19T15:20:57.796Z,61.12
2022-08-19T15:23:25.765Z,59.08
2022-08-19T15:25:55.802Z,56.96
2022-08-19T15:28:25.868Z,54.35
2022-08-19T15:30:54.576Z,52.33
2022-08-19T15:33:22.514Z,48.59
2022-08-19T15:35:54.033Z,45.73
2022-08-19T15:38:25.692Z,45.28
2022-08-19T15:41:15.801Z,43.70
2022-08-19T15:43:44.242Z,42.41
2022-08-19T15:46:12.245Z,41.74
2022-08-19T15:48:45.218Z,42.01
2022-08-19T15:51:25.496Z,41.62
2022-08-19T15:53:55.226Z,43.27
2022-08-19T15:56:27.207Z,42.62
2022-08-19T15:59:13.232Z,44.76
2022-08-19T16:02:03.959Z,45.82
2022-08-19T16:04:49.599Z,46.88
2022-08-19T16:07:22.347Z,48.37
2022-08-19T16:09:52.869Z,49.74
2022-08-19T16:12:21.202Z,50.22
2022-08-19T16:14:49.528Z,50.97
2022-08-19T16:17:17.583Z,51.90
2022-08-19T16:19:47.598Z,52.46
2022-08-19T16:22:19.603Z,53.96
2022-08-19T16:24:47.766Z,54.47
2022-08-19T16:27:17.791Z,56.30
2022-08-19T16:29:46.626Z,57.18
2022-08-19T16:32:14.892Z,57.14
2022-08-19T16:34:44.351Z,57.90
2022-08-19T16:37:12.312Z,58.15
2022-08-19T16:39:41.271Z,58.52
2022-08-19T16:42:13.963Z,58.70
2022-08-19T16:44:45.965Z,59.46
2022-08-19T16:47:15.212Z,60.82
2022-08-19T16:49:53.749Z,62.10
2022-08-19T16:52:26.190Z,63.08
2022-08-19T16:54:54.689Z,62.21
2022-08-19T16:57:23.785Z,62.74
2022-08-19T16:59:53.395Z,63.05
2022-08-19T17:02:23.643Z,62.51
2022-08-19T17:04:59.246Z,63.66
2022-08-19T17:07:28.049Z,64.92
2022-08-19T17:09:56.255Z,65.35
2022-08-19T17:12:30.643Z,66.61
2022-08-19T17:15:02.954Z,66.24
2022-08-19T17:17:32.148Z,66.68
2022-08-19T17:20:02.174Z,68.46
2022-08-19T17:22:30.262Z,69.57
2022-08-19T17:24:58.652Z,69.91
2022-08-19T17:27:32.087Z,70.33
2022-08-19T17:30:03.120Z,71.18
2022-08-19T17:32:34.874Z,70.85
2022-08-19T17:35:04.656Z,71.95
2022-08-19T17:37:32.949Z,72.84
2022-08-19T17:40:02.217Z,73.25
2022-08-19T17:42:30.364Z,72.57
2022-08-19T17:44:59.369Z,72.90
2022-08-19T17:47:29.726Z,72.59
2022-08-19T17:49:57.793Z,72.71
2022-08-19T17:52:26.000Z,72.91
2022-08-19T17:54:53.933Z,72.78
2022-08-19T17:57:22.094Z,73.14
2022-08-19T17:59:50.401Z,74.19
2022-08-19T18:02:21.424Z,73.96
2022-08-19T18:04:51.514Z,73.87
2022-08-19T18:07:21.571Z,75.11
2022-08-19T18:09:51.858Z,75.54
2022-08-19T18:12:26.598Z,76.90
2022-08-19T18:14:54.568Z,77.07
2022-08-19T18:17:23.285Z,79.07
2022-08-19T18:19:52.932Z,78.83
2022-08-19T18:22:27.202Z,79.90
2022-08-19T18:24:55.982Z,80.74
2022-08-19T18:27:23.967Z,81.19
2022-08-19T18:29:52.302Z,81.75
2022-08-19T18:32:23.805Z,82.87
2022-08-19T18:34:56.155Z,83.55
2022-08-19T18:37:26.269Z,85.83
2022-08-19T18:40:11.758Z,86.93
2022-08-19T18:43:00.981Z,89.46
2022-08-19T18:45:46.873Z,90.68
2022-08-19T18:48:32.301Z,91.73
2022-08-19T18:51:04.218Z,91.90
2022-08-19T18:53:34.517Z,93.42
2022-08-19T18:56:03.639Z,98.04
2022-08-19T18:58:34.326Z,99.88
2022-08-19T19:01:11.339Z,100.00
2022-08-19T19:03:45.811Z,100.00
2022-08-19T19:06:18.755Z,100.00
2022-08-19T19:08:46.867Z,100.00
2022-08-19T19:11:20.235Z,100.00
2022-08-19T19:13:49.521Z,100.00
2022-08-19T19:16:24.114Z,100.00
2022-08-19T19:18:52.950Z,100.00
2022-08-19T19:21:23.899Z,100.00
2022-08-19T19:23:53.118Z,100.00
2022-08-19T19:26:23.902Z,100.00
2022-08-19T19:28:52.855Z,100.00
2022-08-19T19:31:25.568Z,100.00
2022-08-19T19:33:54.372Z,100.00
2022-08-19T19:36:24.183Z,100.00
2022-08-19T19:38:52.874Z,100.00
2022-08-19T19:41:24.487Z,100.00
2022-08-19T19:44:29.417Z,99.78
2022-08-19T19:46:49.092Z,98.07
2022-08-19T19:49:19.536Z,94.96
2022-08-19T19:51:48.933Z,91.75
2022-08-19T19:54:21.747Z,91.43
2022-08-19T19:56:53.880Z,90.73
2022-08-19T19:59:22.797Z,91.20
2022-08-19T20:01:51.271Z,89.85
2022-08-19T20:04:22.599Z,89.22
2022-08-19T20:06:51.945Z,88.23
2022-08-19T20:09:19.889Z,88.91
2022-08-19T20:11:53.449Z,89.67
2022-08-19T20:14:23.811Z,88.53
2022-08-19T20:16:53.909Z,89.07
2022-08-19T20:19:25.995Z,89.66
2022-08-19T20:21:57.321Z,90.39
2022-08-19T20:24:28.002Z,90.73
2022-08-19T20:26:55.988Z,91.09
2022-08-19T20:29:39.527Z,91.42
2022-08-19T20:32:11.531Z,91.83
2022-08-19T20:34:40.112Z,90.89
2022-08-19T20:37:09.830Z,90.89
2022-08-19T20:39:38.280Z,91.51
2022-08-19T20:42:06.663Z,91.25
2022-08-19T20:44:34.932Z,91.90
2022-08-19T20:47:05.214Z,92.80
2022-08-19T20:49:33.235Z,92.42
2022-08-19T20:52:01.299Z,93.44
2022-08-19T20:54:30.877Z,94.65
2022-08-19T20:56:58.898Z,95.10
2022-08-19T20:59:27.019Z,95.41
2022-08-19T21:01:55.536Z,96.22
2022-08-19T21:04:23.576Z,96.25
2022-08-19T21:06:54.698Z,97.19
2022-08-19T21:09:22.744Z,97.68
2022-08-19T21:11:52.191Z,98.27
2022-08-19T21:14:20.390Z,98.66
2022-08-19T21:16:49.267Z,99.55
2022-08-19T21:19:19.033Z,99.94
2022-08-19T21:21:50.241Z,100.00
2022-08-19T21:24:18.192Z,100.00
2022-08-19T21:26:49.465Z,100.00
2022-08-19T21:29:21.089Z,100.00
2022-08-19T21:31:50.121Z,100.00
2022-08-19T21:34:18.501Z,100.00
2022-08-19T21:36:46.366Z,100.00
2022-08-19T21:39:14.360Z,100.00
2022-08-19T21:41:43.803Z,100.00
2022-08-19T21:44:11.806Z,100.00
2022-08-19T21:46:41.006Z,100.00
2022-08-19T21:49:09.043Z,100.00
2022-08-19T21:51:36.910Z,100.00
2022-08-19T21:54:07.317Z,100.00
2022-08-19T21:56:42.134Z,100.00
2022-08-19T21:59:10.061Z,100.00
2022-08-19T22:01:38.050Z,100.00
2022-08-19T22:04:07.416Z,100.00
2022-08-19T22:06:35.470Z,100.00
2022-08-19T22:09:09.244Z,100.00
2022-08-19T22:11:37.807Z,100.00
2022-08-19T22:14:05.744Z,100.00
2022-08-19T22:16:35.753Z,100.00
2022-08-19T22:19:03.756Z,100.00
2022-08-19T22:21:40.758Z,100.00
2022-08-19T22:24:10.368Z,100.00
2022-08-19T22:26:38.290Z,100.00
2022-08-19T22:29:07.479Z,100.00
2022-08-19T22:31:36.418Z,100.00
2022-08-19T22:34:05.039Z,100.00
2022-08-19T22:36:35.390Z,100.00
2022-08-19T22:39:04.091Z,100.00
2022-08-19T22:41:33.579Z,100.00
2022-08-19T22:44:01.832Z,100.00
2022-08-19T22:46:33.568Z,100.00
2022-08-19T22:49:01.773Z,100.00
2022-08-19T22:51:49.607Z,100.00
2022-08-19T22:54:19.063Z,100.00
2022-08-19T22:56:47.039Z,100.00
2022-08-19T22:59:15.043Z,100.00
2022-08-19T23:01:43.049Z,100.00
2022-08-19T23:04:11.569Z,100.00
2022-08-19T23:06:42.062Z,100.00
2022-08-19T23:09:10.913Z,100.00
2022-08-19T23:11:46.656Z,100.00
2022-08-19T23:14:16.159Z,100.00
2022-08-19T23:16:50.844Z,100.00
2022-08-19T23:19:19.670Z,100.00
2022-08-19T23:21:48.226Z,100.00
2022-08-19T23:24:16.162Z,100.00
2022-08-19T23:27:04.258Z,100.00
2022-08-19T23:29:51.210Z,100.00
2022-08-19T23:32:20.248Z,100.00
2022-08-19T23:34:48.637Z,100.00
2022-08-19T23:37:16.977Z,100.00
2022-08-19T23:39:45.466Z,100.00
2022-08-19T23:42:14.146Z,100.00
2022-08-19T23:44:51.663Z,100.00
2022-08-19T23:47:21.972Z,100.00
2022-08-19T23:49:50.569Z,100.00
2022-08-19T23:52:21.327Z,100.00
2022-08-19T23:54:49.351Z,100.00
2022-08-19T23:57:17.372Z,100.00
2022-08-19T23:59:48.888Z,100.00
